Time;durP1;ratioP1;P1;durP2;ratioP2;P2;SDS_P1;SDS_P2;PMS_P1;PMS_P2;Temp;Humidity;BMP_temperature;BMP_pressure;BME280_temperature;BME280_humidity;BME280_pressure;Samples;Min_cycle;Max_cycle;Signal;HPM_P1;HPM_P2
2021/05/01 00:01:22;;;;;;;2.20;1.38;;;7.90;84.80;;;;;;5095067;28;20481;-74
2021/05/01 00:03:48;;;;;;;2.67;1.48;;;7.90;84.80;;;;;;5076631;28;20052;-74
2021/05/01 00:06:13;;;;;;;2.55;1.27;;;7.90;84.80;;;;;;5094568;28;20032;-74
2021/05/01 00:08:39;;;;;;;2.17;1.52;;;7.90;84.80;;;;;;5076337;28;20393;-74
2021/05/01 00:11:05;;;;;;;2.03;1.35;;;7.90;84.80;;;;;;5076425;28;20040;-74
2021/05/01 00:13:32;;;;;;;2.67;1.67;;;7.90;84.80;;;;;;5094361;28;20127;-74
2021/05/01 00:15:59;;;;;;;3.20;2.05;;;7.90;84.90;;;;;;5076315;28;20044;-74
2021/05/01 00:18:25;;;;;;;2.10;1.50;;;7.80;84.80;;;;;;5075357;28;20045;-74
2021/05/01 00:20:52;;;;;;;2.85;1.73;;;7.80;84.90;;;;;;5074684;28;20128;-75
2021/05/01 00:23:17;;;;;;;2.20;1.50;;;7.80;84.90;;;;;;5076593;28;20483;-74
2021/05/01 00:25:43;;;;;;;2.70;1.65;;;7.80;84.90;;;;;;5093996;28;20147;-74
2021/05/01 00:28:11;;;;;;;3.72;1.95;;;7.80;84.90;;;;;;5058143;28;20047;-74
2021/05/01 00:30:37;;;;;;;3.30;1.88;;;7.80;84.90;;;;;;5094224;28;20102;-74
2021/05/01 00:33:03;;;;;;;2.38;1.58;;;7.80;84.90;;;;;;5094170;28;20135;-74
2021/05/01 00:35:29;;;;;;;2.35;1.50;;;7.80;84.90;;;;;;5076106;28;20071;-74
2021/05/01 00:37:55;;;;;;;1.88;1.27;;;7.80;84.90;;;;;;5094460;28;20043;-74
2021/05/01 00:40:20;;;;;;;1.73;1.30;;;7.80;84.80;;;;;;5094246;28;20074;-75
2021/05/01 00:42:46;;;;;;;2.55;1.33;;;7.80;84.80;;;;;;5076471;28;20052;-74
2021/05/01 00:45:12;;;;;;;2.72;1.58;;;7.80;84.90;;;;;;5075829;28;20040;-74
2021/05/01 00:47:38;;;;;;;1.58;1.15;;;7.80;84.90;;;;;;5094186;28;20123;-74
2021/05/01 00:50:05;;;;;;;1.88;1.40;;;7.70;84.90;;;;;;5059424;28;20099;-74
2021/05/01 00:52:31;;;;;;;2.50;1.63;;;7.80;84.90;;;;;;5076096;28;20063;-74
2021/05/01 00:54:57;;;;;;;2.45;1.60;;;7.80;84.90;;;;;;5075952;28;20048;-74
2021/05/01 00:57:23;;;;;;;3.17;1.52;;;7.80;84.90;;;;;;5073847;28;20040;-74
2021/05/01 00:59:50;;;;;;;2.35;1.35;;;7.70;84.90;;;;;;5076217;28;20481;-74
2021/05/01 01:02:21;;;;;;;1.92;1.20;;;7.70;85.00;;;;;;5042520;28;20487;-74
2021/05/01 01:04:46;;;;;;;2.10;1.40;;;7.60;85.10;;;;;;5093910;28;20112;-74
2021/05/01 01:07:12;;;;;;;2.22;1.45;;;7.60;85.10;;;;;;5094064;28;20484;-74
2021/05/01 01:09:38;;;;;;;3.58;1.92;;;7.50;85.10;;;;;;5073393;28;20143;-74
2021/05/01 01:12:06;;;;;;;2.17;1.55;;;7.60;85.20;;;;;;5093651;28;20097;-74
2021/05/01 01:14:32;;;;;;;4.15;1.80;;;7.60;85.10;;;;;;5075900;28;20127;-74
2021/05/01 01:16:58;;;;;;;1.95;1.45;;;7.60;85.10;;;;;;5075584;28;20087;-74
2021/05/01 01:19:24;;;;;;;2.13;1.40;;;7.60;85.10;;;;;;5075646;28;20036;-75
2021/05/01 01:21:50;;;;;;;1.60;1.20;;;7.50;85.10;;;;;;5093994;28;20108;-74
2021/05/01 01:24:17;;;;;;;1.42;1.08;;;7.50;85.10;;;;;;5076203;28;20036;-74
2021/05/01 01:26:43;;;;;;;1.92;1.30;;;7.50;85.20;;;;;;5058955;28;20089;-74
2021/05/01 01:29:13;;;;;;;2.25;1.30;;;7.40;85.10;;;;;;5075574;28;20048;-74
2021/05/01 01:31:39;;;;;;;2.92;1.50;;;7.40;85.20;;;;;;5075411;28;20592;-74
2021/05/01 01:34:05;;;;;;;1.73;1.30;;;7.40;85.20;;;;;;5093862;28;20126;-74
2021/05/01 01:36:31;;;;;;;3.45;1.80;;;7.40;85.80;;;;;;5093355;28;20500;-74
2021/05/01 01:38:57;;;;;;;2.13;1.55;;;7.40;85.20;;;;;;5055906;28;20051;-74
2021/05/01 01:41:23;;;;;;;1.58;1.23;;;7.40;85.20;;;;;;5058892;28;20040;-75
2021/05/01 01:43:49;;;;;;;2.13;1.30;;;7.30;85.10;;;;;;5093225;28;20131;-75
2021/05/01 01:46:15;;;;;;;2.38;1.30;;;7.30;85.10;;;;;;5075024;28;20118;-73
2021/05/01 01:48:41;;;;;;;1.88;1.15;;;7.30;85.50;;;;;;5093411;28;20047;-73
2021/05/01 01:51:06;;;;;;;2.40;1.25;;;7.30;85.30;;;;;;5093445;28;20393;-73
2021/05/01 01:53:32;;;;;;;2.15;1.40;;;7.30;85.30;;;;;;5073295;28;20145;-73
2021/05/01 01:55:58;;;;;;;1.60;1.23;;;7.30;85.30;;;;;;5072877;28;20065;-73
2021/05/01 01:58:25;;;;;;;1.35;1.02;;;7.20;85.30;;;;;;5074285;28;20055;-73
2021/05/01 02:00:53;;;;;;;1.02;0.80;;;7.10;85.30;;;;;;5073663;28;20045;-73
2021/05/01 02:03:19;;;;;;;1.25;0.80;;;7.10;85.30;;;;;;5075291;28;20044;-74
2021/05/01 02:05:45;;;;;;;1.40;1.08;;;7.10;85.40;;;;;;5092959;28;20105;-74
2021/05/01 02:08:12;;;;;;;1.30;1.02;;;7.10;85.50;;;;;;5057894;28;20064;-74
2021/05/01 02:10:38;;;;;;;1.50;1.00;;;7.10;85.50;;;;;;5093208;28;20040;-74
2021/05/01 02:13:05;;;;;;;1.27;0.88;;;7.00;85.50;;;;;;5092629;28;20135;-74
2021/05/01 02:15:31;;;;;;;1.55;1.20;;;7.00;85.50;;;;;;5092752;28;20123;-75
2021/05/01 02:17:59;;;;;;;0.93;0.77;;;6.90;85.50;;;;;;5092511;28;20036;-75
2021/05/01 02:20:29;;;;;;;1.10;0.80;;;6.90;85.50;;;;;;5092605;28;20170;-75
2021/05/01 02:22:56;;;;;;;1.63;0.90;;;7.00;85.60;;;;;;5074396;28;20406;-75
2021/05/01 02:25:23;;;;;;;0.88;0.82;;;6.90;85.50;;;;;;5074734;28;20046;-76
2021/05/01 02:27:49;;;;;;;1.40;1.00;;;6.90;85.50;;;;;;5092648;28;20055;-75
2021/05/01 02:30:18;;;;;;;1.13;0.77;;;6.90;85.50;;;;;;5092590;28;20032;-75
2021/05/01 02:32:44;;;;;;;1.88;0.80;;;6.90;85.50;;;;;;5092924;28;20389;-75
2021/05/01 02:35:13;;;;;;;0.70;0.70;;;6.90;85.50;;;;;;5092811;28;20040;-74
2021/05/01 02:37:40;;;;;;;1.08;0.80;;;6.80;85.50;;;;;;5092317;28;20048;-75
2021/05/01 02:40:09;;;;;;;1.25;0.88;;;6.70;85.60;;;;;;5072809;28;20070;-75
2021/05/01 02:42:36;;;;;;;0.60;0.50;;;6.70;85.60;;;;;;5092312;28;20054;-74
2021/05/01 02:45:02;;;;;;;0.73;0.60;;;6.60;85.70;;;;;;5092751;28;20043;-74
2021/05/01 02:47:28;;;;;;;0.80;0.70;;;6.70;85.80;;;;;;5092745;28;20127;-74
2021/05/01 02:49:54;;;;;;;1.52;0.90;;;6.60;85.80;;;;;;5072639;28;20076;-74
2021/05/01 02:52:20;;;;;;;1.05;0.90;;;6.50;85.80;;;;;;5092017;28;20047;-74
2021/05/01 02:54:45;;;;;;;0.90;0.80;;;6.60;85.90;;;;;;5073828;28;20470;-74
2021/05/01 02:57:12;;;;;;;0.90;0.70;;;6.50;85.90;;;;;;5092105;28;20044;-75
2021/05/01 02:59:37;;;;;;;0.60;0.60;;;6.50;85.90;;;;;;5074217;28;20079;-75
2021/05/01 03:02:03;;;;;;;0.82;0.70;;;6.40;85.80;;;;;;5074227;28;20468;-75
2021/05/01 03:04:29;;;;;;;0.57;0.57;;;6.40;85.90;;;;;;5073984;28;20055;-75
2021/05/01 03:06:54;;;;;;;1.10;0.73;;;6.40;85.90;;;;;;5074115;28;20051;-75
2021/05/01 03:09:20;;;;;;;1.13;0.75;;;6.40;85.90;;;;;;5074142;28;20058;-74
2021/05/01 03:11:46;;;;;;;1.10;0.70;;;6.30;85.90;;;;;;5091992;28;20044;-75
2021/05/01 03:14:12;;;;;;;1.02;0.80;;;6.30;85.90;;;;;;5057323;28;20047;-74
2021/05/01 03:16:37;;;;;;;1.10;0.90;;;6.40;85.90;;;;;;5055348;28;20490;-75
2021/05/01 03:19:03;;;;;;;0.80;0.80;;;6.20;85.90;;;;;;5091746;28;20062;-75
2021/05/01 03:21:29;;;;;;;1.13;0.80;;;6.20;85.90;;;;;;5072795;28;20048;-75
2021/05/01 03:23:55;;;;;;;0.70;0.60;;;6.10;85.90;;;;;;5092064;28;20131;-75
2021/05/01 03:26:21;;;;;;;0.63;0.52;;;6.20;86.00;;;;;;5073603;28;20040;-74
2021/05/01 03:28:47;;;;;;;1.20;1.00;;;6.10;86.10;;;;;;5056798;28;20136;-75
2021/05/01 03:31:12;;;;;;;1.40;0.95;;;6.10;86.10;;;;;;5073879;28;20067;-75
2021/05/01 03:33:38;;;;;;;1.25;0.75;;;6.00;86.70;;;;;;5091933;28;20551;-75
2021/05/01 03:36:05;;;;;;;1.55;0.80;;;6.00;86.00;;;;;;5073771;28;20443;-75
2021/05/01 03:38:31;;;;;;;1.23;0.70;;;6.00;86.10;;;;;;5091715;28;20036;-75
2021/05/01 03:40:58;;;;;;;1.50;0.70;;;5.90;86.10;;;;;;5091733;28;20393;-75
2021/05/01 03:43:24;;;;;;;0.70;0.70;;;5.90;86.20;;;;;;5073653;28;20051;-75
2021/05/01 03:45:49;;;;;;;1.00;0.80;;;5.80;86.20;;;;;;5073468;28;20047;-74
2021/05/01 03:48:15;;;;;;;2.08;0.70;;;5.80;86.30;;;;;;5056490;28;20063;-75
2021/05/01 03:50:41;;;;;;;1.15;0.77;;;5.80;86.30;;;;;;5071618;28;20079;-75
2021/05/01 03:53:07;;;;;;;1.20;1.00;;;5.70;86.30;;;;;;5091249;28;20043;-75
2021/05/01 03:55:33;;;;;;;1.55;0.80;;;5.70;86.30;;;;;;5056714;28;20367;-75
2021/05/01 03:57:59;;;;;;;1.33;0.85;;;5.60;86.30;;;;;;5091452;28;20051;-75
2021/05/01 04:00:25;;;;;;;2.75;1.38;;;5.60;86.30;;;;;;5073726;28;20074;-75
2021/05/01 04:02:51;;;;;;;1.67;0.90;;;5.60;86.30;;;;;;5059967;28;20127;-74
2021/05/01 04:05:16;;;;;;;0.90;0.80;;;5.50;86.30;;;;;;5075235;28;20398;-74
2021/05/01 04:07:43;;;;;;;1.10;0.90;;;5.50;86.30;;;;;;5059959;28;20111;-74
2021/05/01 04:10:09;;;;;;;2.40;1.30;;;5.40;86.30;;;;;;5076477;28;20047;-75
2021/05/01 04:12:35;;;;;;;0.90;0.80;;;5.50;86.40;;;;;;5094614;28;20390;-75
2021/05/01 04:15:01;;;;;;;0.68;0.60;;;5.50;86.40;;;;;;5094479;28;20032;-74
2021/05/01 04:17:27;;;;;;;0.80;0.70;;;5.40;86.30;;;;;;5074361;28;20059;-73
2021/05/01 04:19:53;;;;;;;1.92;1.25;;;5.40;86.30;;;;;;5059524;28;20040;-74
2021/05/01 04:22:20;;;;;;;2.20;1.20;;;5.30;86.30;;;;;;5059636;28;20036;-74
2021/05/01 04:24:46;;;;;;;1.67;1.20;;;5.30;86.40;;;;;;5059635;28;20071;-74
2021/05/01 04:27:12;;;;;;;1.42;1.00;;;5.30;86.40;;;;;;5076177;28;20083;-74
2021/05/01 04:29:38;;;;;;;1.15;0.90;;;5.30;86.40;;;;;;5094363;28;20043;-74
2021/05/01 04:32:03;;;;;;;1.50;1.00;;;5.30;86.40;;;;;;5059710;28;20046;-74
2021/05/01 04:34:29;;;;;;;1.25;1.00;;;5.20;86.30;;;;;;5094142;28;20048;-74
2021/05/01 04:36:55;;;;;;;1.50;0.90;;;5.20;86.40;;;;;;5059065;28;20036;-74
2021/05/01 04:39:21;;;;;;;1.17;0.80;;;5.20;86.40;;;;;;5094248;28;20416;-74
2021/05/01 04:41:47;;;;;;;1.92;1.00;;;5.10;86.30;;;;;;5074457;28;20185;-74
2021/05/01 04:44:13;;;;;;;1.65;1.10;;;5.30;86.50;;;;;;5094591;28;20052;-74
2021/05/01 04:46:39;;;;;;;1.27;1.00;;;5.20;86.40;;;;;;5094570;28;20055;-74
2021/05/01 04:49:06;;;;;;;1.75;1.20;;;5.20;86.40;;;;;;5058611;28;20522;-74
2021/05/01 04:51:34;;;;;;;1.90;1.10;;;5.20;86.30;;;;;;5074101;28;20048;-74
2021/05/01 04:54:01;;;;;;;2.47;1.50;;;5.20;86.30;;;;;;5094237;28;20127;-74
2021/05/01 04:56:27;;;;;;;1.20;0.90;;;5.20;86.20;;;;;;5094464;28;20047;-74
2021/05/01 04:58:53;;;;;;;2.40;1.13;;;5.20;86.00;;;;;;5059238;28;20413;-74
2021/05/01 05:01:19;;;;;;;1.50;1.15;;;5.30;86.00;;;;;;5075590;28;20044;-74
2021/05/01 05:03:45;;;;;;;1.70;1.00;;;5.20;85.90;;;;;;5093794;28;20048;-74
2021/05/01 05:06:10;;;;;;;1.40;0.90;;;5.20;85.90;;;;;;5042207;28;20093;-74
2021/05/01 05:08:36;;;;;;;2.42;1.40;;;5.20;86.00;;;;;;5094008;28;20036;-74
2021/05/01 05:11:07;;;;;;;2.72;1.52;;;5.40;86.00;;;;;;5094368;28;20090;-75
2021/05/01 05:13:32;;;;;;;1.83;1.15;;;5.20;85.90;;;;;;5093772;28;20036;-74
2021/05/01 05:15:58;;;;;;;1.42;1.17;;;5.20;85.90;;;;;;5094352;28;20101;-75
2021/05/01 05:18:24;;;;;;;1.83;1.27;;;5.30;86.00;;;;;;5059074;28;20040;-75
2021/05/01 05:20:49;;;;;;;1.60;1.10;;;5.30;86.00;;;;;;5058979;28;20438;-75
2021/05/01 05:23:15;;;;;;;2.08;1.08;;;5.30;86.00;;;;;;5094199;28;20038;-74
2021/05/01 05:25:41;;;;;;;2.03;1.40;;;5.30;85.90;;;;;;5075908;28;20386;-75
2021/05/01 05:28:07;;;;;;;3.13;1.77;;;5.30;85.80;;;;;;5058849;28;20046;-74
2021/05/01 05:30:33;;;;;;;2.65;1.30;;;5.40;85.70;;;;;;5075367;28;20063;-74
2021/05/01 05:33:00;;;;;;;1.05;0.88;;;5.40;85.60;;;;;;5075589;28;20048;-74
2021/05/01 05:35:26;;;;;;;1.90;1.10;;;5.50;85.60;;;;;;5093806;28;20036;-73
2021/05/01 05:37:52;;;;;;;2.42;1.38;;;5.40;85.50;;;;;;5075293;28;20042;-73
2021/05/01 05:40:18;;;;;;;1.70;1.00;;;5.50;85.60;;;;;;5075867;28;20110;-73
2021/05/01 05:42:45;;;;;;;1.95;1.15;;;5.50;85.50;;;;;;5075372;28;20395;-74
2021/05/01 05:45:12;;;;;;;2.17;1.30;;;5.50;85.50;;;;;;5075136;28;20044;-74
2021/05/01 05:47:38;;;;;;;3.42;1.75;;;5.50;85.50;;;;;;5058571;28;20086;-74
2021/05/01 05:50:05;;;;;;;2.03;1.30;;;5.50;85.40;;;;;;5074540;28;20475;-74
2021/05/01 05:52:31;;;;;;;2.28;1.40;;;5.60;85.40;;;;;;5093202;28;20059;-74
2021/05/01 05:54:59;;;;;;;2.78;1.50;;;5.60;85.40;;;;;;5073527;28;20470;-74
2021/05/01 05:57:25;;;;;;;2.90;1.67;;;5.70;85.40;;;;;;5040232;28;20489;-74
2021/05/01 05:59:51;;;;;;;2.75;1.52;;;5.70;85.30;;;;;;5092828;28;20043;-74
2021/05/01 06:02:21;;;;;;;3.47;1.90;;;5.70;85.20;;;;;;5093126;28;20035;-74
2021/05/01 06:04:57;;;;;;;2.35;1.48;;;5.80;85.20;;;;;;5058253;28;20036;-74
2021/05/01 06:07:27;;;;;;;3.40;1.80;;;5.80;85.10;;;;;;5074699;28;20500;-74
2021/05/01 06:09:55;;;;;;;3.50;1.70;;;5.90;85.10;;;;;;5057953;28;20397;-75
2021/05/01 06:12:22;;;;;;;4.07;1.92;;;6.00;85.00;;;;;;5074955;28;20131;-75
2021/05/01 06:14:49;;;;;;;5.10;2.10;;;6.00;85.00;;;;;;5074411;28;20044;-75
2021/05/01 06:17:20;;;;;;;3.53;1.98;;;6.00;84.90;;;;;;5073704;28;20123;-75
2021/05/01 06:19:48;;;;;;;4.05;2.05;;;6.10;84.80;;;;;;5075479;28;20040;-75
2021/05/01 06:22:14;;;;;;;3.20;1.98;;;6.20;84.70;;;;;;5092498;28;20039;-75
2021/05/01 06:24:42;;;;;;;5.53;2.20;;;6.30;84.60;;;;;;5073958;28;20531;-75
2021/05/01 06:27:08;;;;;;;3.88;1.92;;;6.30;84.60;;;;;;5092639;28;20035;-74
2021/05/01 06:29:37;;;;;;;4.03;2.10;;;6.40;84.50;;;;;;5057896;28;20044;-73
2021/05/01 06:32:04;;;;;;;3.95;2.22;;;6.50;84.50;;;;;;5074857;28;20066;-74
2021/05/01 06:34:31;;;;;;;3.92;2.20;;;6.60;84.30;;;;;;5074876;28;20067;-74
2021/05/01 06:36:57;;;;;;;3.88;2.13;;;6.60;84.30;;;;;;5092607;28;20040;-75
2021/05/01 06:39:25;;;;;;;5.10;2.40;;;6.70;84.30;;;;;;5074458;28;20044;-75
2021/05/01 06:41:56;;;;;;;4.65;2.28;;;6.80;84.20;;;;;;5074634;28;20085;-74
2021/05/01 06:44:42;;;;;;;3.70;2.22;;;6.70;84.00;;;;;;5092958;28;20139;-74
2021/05/01 06:47:10;;;;;;;3.40;2.20;;;7.00;84.10;;;;;;5074218;28;20531;-74
2021/05/01 06:49:55;;;;;;;3.47;2.05;;;7.10;83.90;;;;;;5075059;28;20123;-75
2021/05/01 06:52:23;;;;;;;3.25;1.80;;;7.20;83.80;;;;;;5074171;28;20450;-75
2021/05/01 06:54:52;;;;;;;3.40;1.92;;;7.40;83.60;;;;;;5092368;28;20074;-75
2021/05/01 06:57:26;;;;;;;3.13;1.88;;;7.50;83.60;;;;;;5072986;28;20067;-74
2021/05/01 06:59:54;;;;;;;4.03;2.40;;;7.50;83.50;;;;;;5092851;28;20057;-74
2021/05/01 07:02:27;;;;;;;4.53;2.45;;;7.60;83.40;;;;;;5074245;28;20078;-74
2021/05/01 07:04:54;;;;;;;5.10;2.25;;;7.80;83.30;;;;;;5074187;28;20048;-74
2021/05/01 07:07:21;;;;;;;3.85;2.00;;;7.80;82.90;;;;;;5092235;28;20092;-73
2021/05/01 07:09:48;;;;;;;2.95;1.77;;;7.90;83.10;;;;;;5074031;28;20402;-74
2021/05/01 07:12:14;;;;;;;3.42;2.03;;;7.90;83.00;;;;;;5092362;28;20036;-74
2021/05/01 07:14:41;;;;;;;3.67;2.20;;;8.00;83.20;;;;;;5056773;28;20056;-74
2021/05/01 07:17:08;;;;;;;3.95;2.38;;;8.10;83.20;;;;;;5092338;28;20036;-74
2021/05/01 07:19:34;;;;;;;3.38;1.92;;;8.10;83.10;;;;;;5092043;28;20032;-74
2021/05/01 07:22:01;;;;;;;3.42;2.00;;;8.20;83.20;;;;;;5074188;28;20123;-74
2021/05/01 07:24:27;;;;;;;3.35;1.63;;;8.40;83.20;;;;;;5073290;28;20032;-75
2021/05/01 07:26:55;;;;;;;3.65;2.00;;;8.50;83.00;;;;;;5091861;28;20052;-74
2021/05/01 07:29:28;;;;;;;2.97;1.80;;;8.60;82.80;;;;;;5057360;28;20040;-74
2021/05/01 07:31:56;;;;;;;2.67;1.65;;;8.70;82.70;;;;;;5073657;28;20055;-73
2021/05/01 07:34:24;;;;;;;2.35;1.63;;;8.70;82.50;;;;;;5091793;28;20082;-74
2021/05/01 07:36:52;;;;;;;3.45;1.90;;;8.70;82.40;;;;;;5094356;28;20374;-74
2021/05/01 07:39:19;;;;;;;3.85;2.15;;;8.80;82.50;;;;;;5095655;28;20044;-73
2021/05/01 07:41:48;;;;;;;2.33;1.55;;;8.80;82.50;;;;;;5077108;28;20036;-73
2021/05/01 07:44:16;;;;;;;3.28;1.85;;;8.90;82.60;;;;;;5077841;28;20438;-73
2021/05/01 07:46:44;;;;;;;4.35;2.00;;;9.00;82.40;;;;;;5076483;28;20040;-73
2021/05/01 07:49:10;;;;;;;2.70;1.70;;;9.00;82.40;;;;;;5077095;28;20040;-73
2021/05/01 07:51:38;;;;;;;2.20;1.50;;;9.20;82.40;;;;;;5075223;28;20037;-74
2021/05/01 07:54:04;;;;;;;1.98;1.33;;;9.40;81.80;;;;;;5075577;28;20052;-73
2021/05/01 07:56:30;;;;;;;2.03;1.40;;;9.60;81.60;;;;;;5076644;28;20047;-73
2021/05/01 07:58:58;;;;;;;2.08;1.38;;;9.70;81.30;;;;;;5095108;28;20028;-73
2021/05/01 08:01:27;;;;;;;3.03;1.40;;;9.70;81.00;;;;;;5095261;28;20036;-73
2021/05/01 08:03:54;;;;;;;2.08;1.40;;;9.70;81.20;;;;;;5094964;28;20106;-74
2021/05/01 08:06:20;;;;;;;2.72;1.50;;;9.70;81.50;;;;;;5077387;28;20402;-73
2021/05/01 08:08:45;;;;;;;1.55;1.13;;;9.80;81.30;;;;;;5095259;28;20051;-74
2021/05/01 08:11:11;;;;;;;3.28;1.30;;;9.90;81.30;;;;;;5094948;28;20044;-74
2021/05/01 08:13:37;;;;;;;2.10;1.33;;;9.80;81.10;;;;;;5074904;28;20502;-74
2021/05/01 08:16:02;;;;;;;1.75;1.40;;;9.70;81.20;;;;;;5094752;28;20036;-74
2021/05/01 08:18:28;;;;;;;1.83;1.42;;;9.80;81.70;;;;;;5095126;28;20557;-74
2021/05/01 08:20:54;;;;;;;3.13;1.40;;;10.10;81.50;;;;;;5094671;28;20135;-75
2021/05/01 08:23:20;;;;;;;2.70;1.30;;;10.20;80.90;;;;;;5076445;28;20083;-74
2021/05/01 08:25:45;;;;;;;1.58;1.20;;;10.50;81.10;;;;;;5076477;28;20066;-74
2021/05/01 08:28:11;;;;;;;1.20;1.10;;;10.70;80.10;;;;;;5094709;28;20047;-75
2021/05/01 08:30:37;;;;;;;2.22;1.40;;;11.00;79.80;;;;;;5076651;28;20032;-75
2021/05/01 08:33:03;;;;;;;2.08;1.30;;;11.10;79.30;;;;;;5076507;28;20044;-74
2021/05/01 08:35:29;;;;;;;1.90;1.35;;;11.30;78.70;;;;;;5076941;28;20049;-75
2021/05/01 08:37:54;;;;;;;2.55;1.40;;;11.00;78.80;;;;;;5074798;28;20040;-74
2021/05/01 08:40:20;;;;;;;1.73;1.40;;;11.10;79.30;;;;;;5077021;28;20039;-74
2021/05/01 08:42:47;;;;;;;4.30;1.50;;;11.20;79.20;;;;;;5076419;28;20088;-75
2021/05/01 08:45:17;;;;;;;2.05;1.27;;;11.30;79.00;;;;;;5095092;28;20126;-74
2021/05/01 08:47:45;;;;;;;1.77;1.40;;;11.50;78.80;;;;;;5094612;28;20051;-73
2021/05/01 08:50:33;;;;;;;2.58;1.35;;;11.60;78.30;;;;;;5076908;28;20075;-74
2021/05/01 08:53:02;;;;;;;2.13;1.35;;;11.60;77.90;;;;;;5094686;28;20036;-74
2021/05/01 08:55:34;;;;;;;1.40;1.10;;;11.60;78.20;;;;;;5076226;28;20036;-74
2021/05/01 08:58:01;;;;;;;1.10;1.00;;;11.70;78.20;;;;;;5093982;28;20039;-75
2021/05/01 09:00:26;;;;;;;2.25;1.20;;;11.80;77.90;;;;;;5075915;28;20036;-73
2021/05/01 09:02:54;;;;;;;1.23;1.00;;;11.90;77.70;;;;;;5094373;28;20047;-74
2021/05/01 09:05:23;;;;;;;3.08;1.20;;;12.00;77.50;;;;;;5059957;28;20067;-73
2021/05/01 09:07:50;;;;;;;2.53;1.25;;;12.10;77.30;;;;;;5094013;28;20047;-73
2021/05/01 09:10:16;;;;;;;1.13;1.02;;;12.20;77.10;;;;;;5076637;28;20047;-73
2021/05/01 09:12:46;;;;;;;2.55;1.10;;;12.30;76.90;;;;;;5059435;28;20036;-74
2021/05/01 09:15:20;;;;;;;2.10;1.45;;;12.50;76.70;;;;;;5094553;28;20055;-74
2021/05/01 09:17:48;;;;;;;2.13;1.20;;;12.20;76.30;;;;;;5094607;28;20537;-74
2021/05/01 09:20:16;;;;;;;2.72;1.40;;;12.10;76.80;;;;;;5094649;28;20389;-75
2021/05/01 09:23:02;;;;;;;1.73;1.08;;;12.30;76.80;;;;;;5094260;28;20102;-74
2021/05/01 09:25:31;;;;;;;2.00;1.00;;;12.50;76.60;;;;;;5075981;28;20051;-74
2021/05/01 09:28:14;;;;;;;1.50;1.10;;;12.60;76.10;;;;;;5075519;28;20131;-74
2021/05/01 09:30:43;;;;;;;3.22;0.90;;;12.60;75.80;;;;;;5075468;28;20047;-74
2021/05/01 09:33:27;;;;;;;0.95;0.90;;;12.70;76.00;;;;;;5093942;28;20040;-75
2021/05/01 09:36:01;;;;;;;2.78;1.00;;;12.80;75.50;;;;;;5093881;28;20055;-75
2021/05/01 09:38:32;;;;;;;1.20;1.10;;;12.90;75.30;;;;;;5093486;28;20047;-74
2021/05/01 09:41:07;;;;;;;1.27;1.05;;;13.00;74.80;;;;;;5075938;28;20043;-74
2021/05/01 09:43:33;;;;;;;1.30;1.02;;;13.00;74.90;;;;;;5042119;28;20040;-73
2021/05/01 09:45:59;;;;;;;1.63;1.10;;;13.10;74.80;;;;;;5093846;28;20434;-73
2021/05/01 09:48:25;;;;;;;1.27;1.02;;;13.30;74.60;;;;;;5075158;28;20059;-74
2021/05/01 09:51:03;;;;;;;1.10;1.00;;;13.30;74.20;;;;;;5093163;28;20059;-73
2021/05/01 09:53:30;;;;;;;1.70;1.10;;;13.40;74.10;;;;;;5075013;28;20044;-74
2021/05/01 09:55:58;;;;;;;2.50;1.05;;;13.50;74.00;;;;;;5093547;28;20043;-74
2021/05/01 09:58:27;;;;;;;1.40;1.00;;;13.60;73.90;;;;;;5092131;28;20089;-74
2021/05/01 10:01:12;;;;;;;1.85;1.00;;;13.80;73.80;;;;;;5093524;28;20134;-74
2021/05/01 10:03:39;;;;;;;1.10;1.00;;;13.90;73.00;;;;;;5093040;28;20054;-74
2021/05/01 10:06:07;;;;;;;0.85;0.73;;;14.00;72.90;;;;;;5074945;28;20461;-73
2021/05/01 10:08:33;;;;;;;0.93;0.80;;;14.00;72.50;;;;;;5071282;28;20047;-74
2021/05/01 10:11:14;;;;;;;1.95;0.90;;;14.10;72.40;;;;;;5093553;28;20032;-74
2021/05/01 10:13:52;;;;;;;1.10;1.00;;;14.20;72.20;;;;;;5092753;28;20434;-74
2021/05/01 10:16:21;;;;;;;1.58;0.77;;;14.00;71.80;;;;;;5093400;28;20040;-74
2021/05/01 10:19:08;;;;;;;1.70;0.82;;;13.80;72.20;;;;;;5074571;28;20032;-73
2021/05/01 10:21:35;;;;;;;0.80;0.80;;;13.70;72.60;;;;;;5092811;28;20036;-74
2021/05/01 10:24:01;;;;;;;0.60;0.60;;;13.60;73.20;;;;;;5074619;28;20054;-75
2021/05/01 10:26:40;;;;;;;1.27;0.80;;;13.50;73.20;;;;;;5075089;28;20044;-74
2021/05/01 10:29:07;;;;;;;1.65;0.90;;;13.40;72.90;;;;;;5074622;28;20044;-75
2021/05/01 10:31:45;;;;;;;1.08;0.98;;;13.10;73.10;;;;;;5075286;28;20047;-74
2021/05/01 10:34:12;;;;;;;0.70;0.70;;;12.90;73.50;;;;;;5073287;28;20051;-75
2021/05/01 10:36:43;;;;;;;2.03;1.00;;;12.70;73.90;;;;;;5074451;28;20047;-75
2021/05/01 10:39:10;;;;;;;1.75;1.00;;;12.60;73.90;;;;;;5092571;28;20040;-76
2021/05/01 10:41:39;;;;;;;1.45;1.00;;;12.40;73.90;;;;;;5075217;28;20067;-77
2021/05/01 10:44:07;;;;;;;2.38;1.00;;;12.30;73.90;;;;;;5075167;28;20048;-77
2021/05/01 10:46:35;;;;;;;1.35;0.98;;;12.20;74.00;;;;;;5057864;28;20047;-79
2021/05/01 10:49:06;;;;;;;0.80;0.80;;;12.20;74.00;;;;;;5058437;28;20086;-77
2021/05/01 10:51:42;;;;;;;2.42;0.98;;;12.20;74.00;;;;;;5074251;28;20097;-76
2021/05/01 10:54:14;;;;;;;1.48;0.82;;;12.20;73.90;;;;;;5092493;28;20040;-76
2021/05/01 10:56:44;;;;;;;1.20;0.90;;;12.20;73.80;;;;;;5092511;28;20090;-75
2021/05/01 10:59:14;;;;;;;1.20;0.90;;;12.20;73.50;;;;;;5075122;28;20128;-77
2021/05/01 11:01:46;;;;;;;1.30;0.90;;;12.20;73.30;;;;;;5074060;28;20047;-77
2021/05/01 11:04:18;;;;;;;1.23;0.85;;;12.20;73.10;;;;;;5092179;28;20488;-76
2021/05/01 11:06:48;;;;;;;1.13;0.80;;;12.20;73.00;;;;;;5092283;28;20048;-75
2021/05/01 11:09:38;;;;;;;0.85;0.73;;;12.30;72.90;;;;;;5057634;28;20036;-75
2021/05/01 11:12:07;;;;;;;0.90;0.90;;;12.30;72.40;;;;;;5077460;28;20048;-74
2021/05/01 11:14:38;;;;;;;0.70;0.70;;;12.50;72.40;;;;;;5095543;28;20136;-74
2021/05/01 11:17:22;;;;;;;;;;;12.70;72.00;;;;;;5079030;28;20509;-74
2021/05/01 11:19:48;;;;;;;0.50;0.50;;;12.80;71.20;;;;;;5095540;28;19912;-74
2021/05/01 11:22:18;;;;;;;1.02;0.80;;;12.90;71.10;;;;;;5095929;28;20119;-74
2021/05/01 11:24:46;;;;;;;1.38;0.55;;;12.90;71.00;;;;;;5077484;28;20055;-76
2021/05/01 11:27:12;;;;;;;1.85;0.90;;;13.20;70.60;;;;;;5075932;28;20046;-76
2021/05/01 11:29:40;;;;;;;0.90;0.80;;;13.40;69.90;;;;;;5095443;28;20054;-77
2021/05/01 11:32:07;;;;;;;1.42;0.80;;;13.60;69.40;;;;;;5060497;28;20036;-76
2021/05/01 11:34:34;;;;;;;0.88;0.75;;;13.60;69.30;;;;;;5076637;28;20398;-73
2021/05/01 11:37:06;;;;;;;1.15;0.90;;;13.80;69.00;;;;;;5095659;28;20040;-75
2021/05/01 11:39:40;;;;;;;2.33;1.15;;;13.80;68.80;;;;;;5095762;28;20115;-74
2021/05/01 11:42:07;;;;;;;1.55;0.80;;;13.70;68.60;;;;;;5095174;28;20094;-75
2021/05/01 11:44:33;;;;;;;1.45;1.02;;;13.50;68.80;;;;;;5076093;28;20080;-77
2021/05/01 11:47:08;;;;;;;1.30;0.90;;;13.30;69.20;;;;;;5043700;28;20043;-75
2021/05/01 11:49:34;;;;;;;0.90;0.77;;;13.40;69.60;;;;;;5059445;28;20036;-76
2021/05/01 11:52:14;;;;;;;0.70;0.70;;;13.30;69.60;;;;;;5060225;28;20406;-76
2021/05/01 11:55:04;;;;;;;0.60;0.60;;;13.10;69.40;;;;;;5078141;28;20481;-75
2021/05/01 11:57:41;;;;;;;1.17;0.80;;;13.00;69.60;;;;;;5095702;28;20044;-74
2021/05/01 12:00:08;;;;;;;0.80;0.70;;;12.90;69.60;;;;;;5076238;28;20132;-75
2021/05/01 12:02:37;;;;;;;2.03;0.95;;;12.80;69.80;;;;;;5095543;28;20036;-74
2021/05/01 12:05:15;;;;;;;1.27;0.90;;;12.60;69.70;;;;;;5061107;28;20047;-74
2021/05/01 12:08:01;;;;;;;1.02;0.65;;;12.60;69.60;;;;;;5095039;28;20052;-74
2021/05/01 12:10:27;;;;;;;0.70;0.60;;;12.60;69.60;;;;;;5076656;28;20082;-75
2021/05/01 12:13:05;;;;;;;0.90;0.80;;;12.70;69.60;;;;;;5095460;28;20086;-74
2021/05/01 12:15:34;;;;;;;0.60;0.60;;;12.70;69.00;;;;;;5060409;28;20066;-74
2021/05/01 12:18:02;;;;;;;1.25;0.90;;;12.80;68.90;;;;;;5074904;28;20393;-74
2021/05/01 12:20:29;;;;;;;1.33;0.60;;;12.80;68.80;;;;;;5076542;28;20074;-74
2021/05/01 12:23:03;;;;;;;0.52;0.52;;;12.80;68.50;;;;;;5094223;28;20048;-74
2021/05/01 12:25:34;;;;;;;0.73;0.68;;;12.80;68.40;;;;;;5060121;28;20043;-75
2021/05/01 12:28:01;;;;;;;0.60;0.50;;;12.80;68.30;;;;;;5094896;28;20048;-74
2021/05/01 12:30:49;;;;;;;0.95;0.80;;;12.80;68.20;;;;;;5059779;28;20549;-74
2021/05/01 12:33:44;;;;;;;0.70;0.63;;;12.80;68.30;;;;;;5076612;28;20047;-74
2021/05/01 12:36:12;;;;;;;0.90;0.70;;;12.90;68.20;;;;;;5062466;28;20047;-73
2021/05/01 12:38:41;;;;;;;0.90;0.90;;;12.90;68.10;;;;;;5075305;28;20043;-73
2021/05/01 12:41:18;;;;;;;1.30;0.90;;;12.80;68.00;;;;;;5076578;28;20501;-73
2021/05/01 12:43:46;;;;;;;2.70;0.80;;;12.70;68.30;;;;;;5094859;28;20040;-73
2021/05/01 12:46:38;;;;;;;0.70;0.70;;;12.60;68.40;;;;;;5094872;28;20054;-73
2021/05/01 13:03:20;;;;;;;0.52;0.40;;;12.10;64.40;;;;;;5150955;27;20139;-74
2021/05/01 13:05:47;;;;;;;0.40;0.40;;;12.20;65.50;;;;;;5130015;28;20032;-74
2021/05/01 13:08:29;;;;;;;0.75;0.60;;;12.30;66.70;;;;;;5111971;28;20443;-74
2021/05/01 13:10:56;;;;;;;0.70;0.68;;;12.20;67.60;;;;;;5111761;28;20043;-74
2021/05/01 13:13:37;;;;;;;0.40;0.40;;;12.30;68.20;;;;;;5129830;28;20043;-73